Terminal Aerodrome Forecast
Issued by NWS

Home | Current Version | Previous Version | Text Only | Print | Product List | Glossary On
Versions: 1 2 3 4 5 6 7 8 9 10 11 12 13 14 15
278
FTUS46 KMFR 291740
TAFRBG
TAF
KRBG 291740Z 2918/3018 00000KT P6SM SKC
     FM292300 35007KT P6SM SCT120 BKN250
     FM300500 00000KT P6SM BKN080
     FM301100 00000KT P6SM -RA SCT015 BKN025 OVC040=

USA.gov is the U.S. government's official web portal to all federal, state and local government web resources and services.